createdAt,value
2018-04-30T00:01:57.733Z,42.14
2018-04-30T00:04:26.039Z,41.06
2018-04-30T00:06:54.313Z,38.30
2018-04-30T00:09:22.605Z,37.72
2018-04-30T00:11:50.151Z,36.56
2018-04-30T00:14:18.408Z,35.54
2018-04-30T00:16:45.933Z,39.56
2018-04-30T00:19:14.658Z,35.14
2018-04-30T00:21:45.023Z,36.52
2018-04-30T00:24:14.747Z,40.10
2018-04-30T00:26:45.318Z,35.52
2018-04-30T00:29:15.289Z,40.12
2018-04-30T00:31:42.821Z,33.88
2018-04-30T00:34:11.109Z,38.02
2018-04-30T00:36:38.613Z,38.34
2018-04-30T00:39:06.903Z,42.26
2018-04-30T00:41:35.167Z,41.12
2018-04-30T00:44:03.465Z,41.04
2018-04-30T00:46:31.771Z,41.92
2018-04-30T00:48:59.276Z,38.96
2018-04-30T00:51:27.551Z,36.10
2018-04-30T00:53:55.853Z,39.40
2018-04-30T00:56:24.109Z,38.06
2018-04-30T00:58:52.413Z,35.34
2018-04-30T01:01:20.669Z,36.78
2018-04-30T01:03:48.929Z,39.36
2018-04-30T01:06:17.222Z,38.00
2018-04-30T01:08:46.776Z,39.90
2018-04-30T01:11:16.243Z,39.36
2018-04-30T01:13:45.585Z,39.24
2018-04-30T01:16:13.845Z,35.52
2018-04-30T01:18:43.110Z,38.50
2018-04-30T01:21:11.392Z,34.56
2018-04-30T01:23:39.689Z,36.84
2018-04-30T01:26:07.966Z,37.72
2018-04-30T01:28:36.238Z,33.30
2018-04-30T01:31:04.548Z,40.22
2018-04-30T01:33:32.812Z,39.10
2018-04-30T01:36:01.102Z,30.86
2018-04-30T01:38:29.394Z,32.90
2018-04-30T01:40:57.671Z,37.16
2018-04-30T01:43:26.496Z,33.20
2018-04-30T01:45:54.781Z,29.16
2018-04-30T01:48:23.095Z,34.44
2018-04-30T01:50:51.371Z,32.84
2018-04-30T01:53:19.671Z,32.62
2018-04-30T01:55:47.969Z,27.68
2018-04-30T01:58:16.241Z,28.98
2018-04-30T02:00:45.354Z,28.62
2018-04-30T02:03:15.216Z,33.06
2018-04-30T02:05:45.178Z,27.46
2018-04-30T02:08:15.519Z,35.48
2018-04-30T02:10:44.804Z,29.48
2018-04-30T02:13:15.258Z,29.18
2018-04-30T02:15:44.825Z,26.94
2018-04-30T02:18:14.938Z,29.70
2018-04-30T02:20:44.481Z,30.70
2018-04-30T02:23:12.760Z,26.62
2018-04-30T02:25:41.029Z,27.60
2018-04-30T02:28:09.328Z,29.20
2018-04-30T02:30:37.601Z,28.08
2018-04-30T02:33:05.877Z,30.20
2018-04-30T02:35:34.164Z,27.82
2018-04-30T02:38:02.474Z,29.06
2018-04-30T02:40:30.749Z,30.06
2018-04-30T02:42:59.046Z,28.98
2018-04-30T02:45:27.345Z,27.96
2018-04-30T02:47:55.642Z,31.98
2018-04-30T02:50:27.383Z,35.60
2018-04-30T02:52:55.663Z,29.02
2018-04-30T02:55:23.940Z,37.16
2018-04-30T02:57:51.462Z,33.32
2018-04-30T03:00:19.776Z,29.04
2018-04-30T03:02:48.089Z,32.66
2018-04-30T03:05:16.393Z,33.96
2018-04-30T03:07:44.680Z,40.28
2018-04-30T03:10:15.197Z,39.68
2018-04-30T03:12:44.498Z,35.78
2018-04-30T03:15:12.761Z,37.22
2018-04-30T03:17:41.046Z,33.18
2018-04-30T03:20:09.343Z,39.30
2018-04-30T03:22:36.852Z,30.82
2018-04-30T03:25:05.159Z,35.80
2018-04-30T03:27:33.425Z,31.52
2018-04-30T03:30:00.971Z,31.40
2018-04-30T03:32:29.252Z,29.50
2018-04-30T03:34:57.545Z,32.04
2018-04-30T03:37:25.803Z,31.28
2018-04-30T03:39:54.071Z,30.32
2018-04-30T03:42:22.364Z,29.54
2018-04-30T03:44:50.636Z,28.14
2018-04-30T03:47:18.941Z,28.30
2018-04-30T03:49:47.319Z,28.14
2018-04-30T03:52:21.993Z,25.68
2018-04-30T03:54:50.267Z,24.08
2018-04-30T03:57:18.589Z,22.56
2018-04-30T03:59:46.077Z,22.68
2018-04-30T04:02:26.162Z,20.58
2018-04-30T04:05:06.183Z,22.26
2018-04-30T04:07:34.458Z,16.62
2018-04-30T04:10:02.750Z,18.44
2018-04-30T04:12:31.030Z,18.74
2018-04-30T04:14:59.337Z,16.38
2018-04-30T04:17:27.631Z,15.54
2018-04-30T04:19:55.963Z,17.46
2018-04-30T04:22:24.228Z,16.76
2018-04-30T04:24:52.490Z,19.72
2018-04-30T04:27:20.779Z,18.08
2018-04-30T04:29:49.033Z,19.14
2018-04-30T04:32:17.334Z,16.88
2018-04-30T04:34:46.869Z,16.00
2018-04-30T04:37:16.751Z,16.66
2018-04-30T04:39:46.141Z,16.28
2018-04-30T04:42:15.887Z,15.58
2018-04-30T04:44:45.240Z,16.42
2018-04-30T04:47:15.450Z,14.06
2018-04-30T04:49:46.013Z,15.76
2018-04-30T04:52:15.498Z,18.34
2018-04-30T04:54:45.897Z,19.60
2018-04-30T04:57:15.274Z,15.16
2018-04-30T04:59:45.526Z,15.48
2018-04-30T05:02:14.535Z,16.28
2018-04-30T05:04:42.778Z,16.64
2018-04-30T05:07:11.223Z,15.46
2018-04-30T05:09:39.526Z,20.48
2018-04-30T05:12:07.834Z,15.72
2018-04-30T05:14:36.100Z,15.04
2018-04-30T05:17:04.392Z,14.74
2018-04-30T05:19:32.661Z,19.62
2018-04-30T05:22:00.970Z,18.88
2018-04-30T05:24:29.261Z,15.16
2018-04-30T05:26:57.557Z,16.34
2018-04-30T05:29:25.818Z,15.38
2018-04-30T05:31:54.121Z,14.42
2018-04-30T05:34:22.381Z,16.28
2018-04-30T05:36:49.896Z,19.22
2018-04-30T05:39:18.206Z,21.50
2018-04-30T05:41:46.477Z,21.36
2018-04-30T05:44:14.782Z,18.22
2018-04-30T05:46:45.157Z,19.50
2018-04-30T05:49:14.720Z,21.58
2018-04-30T05:51:43.386Z,20.70
2018-04-30T05:54:12.276Z,21.58
2018-04-30T05:56:40.572Z,19.00
2018-04-30T05:59:08.826Z,21.66
2018-04-30T06:01:37.112Z,17.46
2018-04-30T06:04:05.413Z,16.66
2018-04-30T06:06:33.687Z,16.32
2018-04-30T06:09:01.985Z,14.68
2018-04-30T06:11:33.477Z,15.40
2018-04-30T06:14:01.770Z,13.82
2018-04-30T06:16:30.056Z,16.82
2018-04-30T06:18:59.275Z,14.32
2018-04-30T06:30:07.279Z,9.60
2018-04-30T06:32:35.562Z,8.66
2018-04-30T06:35:03.820Z,9.16
2018-04-30T06:37:32.135Z,8.88
2018-04-30T06:40:00.458Z,9.80
2018-04-30T06:42:47.573Z,7.08
2018-04-30T06:45:15.845Z,6.16
2018-04-30T06:47:45.191Z,6.52
2018-04-30T06:50:13.440Z,5.14
2018-04-30T06:52:42.944Z,5.20
2018-04-30T06:55:11.234Z,4.94
2018-04-30T06:57:40.506Z,4.32
2018-04-30T07:00:08.833Z,4.06
2018-04-30T07:02:37.124Z,7.30
2018-04-30T07:05:06.728Z,3.62
2018-04-30T07:07:34.981Z,6.14
2018-04-30T07:10:08.250Z,5.60
2018-04-30T07:12:36.540Z,4.22
2018-04-30T07:15:04.874Z,4.82
2018-04-30T07:17:35.370Z,4.30
2018-04-30T07:20:10.535Z,5.44
2018-04-30T07:22:39.258Z,4.40
2018-04-30T07:25:13.853Z,3.88
2018-04-30T07:27:42.158Z,4.76
2018-04-30T07:30:10.396Z,4.76
2018-04-30T07:32:39.427Z,3.96
2018-04-30T07:35:08.402Z,3.82
2018-04-30T07:37:36.691Z,4.76
2018-04-30T07:40:04.968Z,6.00
2018-04-30T07:42:33.237Z,4.88
2018-04-30T07:45:01.514Z,4.20
2018-04-30T07:47:29.782Z,3.76
2018-04-30T07:49:58.057Z,4.60
2018-04-30T07:52:26.991Z,3.98
2018-04-30T07:54:54.485Z,4.16
2018-04-30T07:57:22.766Z,5.04
2018-04-30T07:59:53.012Z,4.96
2018-04-30T08:02:21.301Z,4.12
2018-04-30T08:04:50.500Z,3.34
2018-04-30T08:07:18.792Z,5.82
2018-04-30T08:09:47.046Z,4.98
2018-04-30T08:12:15.330Z,4.56
2018-04-30T08:14:43.602Z,3.24
2018-04-30T08:17:11.899Z,3.58
2018-04-30T08:19:40.169Z,4.52
2018-04-30T08:22:10.405Z,4.34
2018-04-30T08:24:39.449Z,8.86
2018-04-30T08:27:08.506Z,3.56
2018-04-30T08:29:36.757Z,3.34
2018-04-30T08:32:05.977Z,3.54
2018-04-30T08:34:34.227Z,4.68
2018-04-30T08:37:03.500Z,3.28
2018-04-30T08:39:31.756Z,3.02
2018-04-30T08:42:00.999Z,3.50
2018-04-30T08:44:29.281Z,2.70
2018-04-30T08:46:56.790Z,3.38
2018-04-30T08:49:25.041Z,3.44
2018-04-30T08:51:53.300Z,3.88
2018-04-30T08:54:21.567Z,3.96
2018-04-30T08:56:50.833Z,3.20
2018-04-30T08:59:19.090Z,4.34
2018-04-30T09:01:47.382Z,4.90
2018-04-30T09:04:15.669Z,3.76
2018-04-30T09:06:43.932Z,6.50
2018-04-30T09:09:12.216Z,3.40
2018-04-30T09:11:40.493Z,2.98
2018-04-30T09:14:09.785Z,3.72
2018-04-30T09:16:38.095Z,2.96
2018-04-30T09:19:06.388Z,5.40
2018-04-30T09:21:34.653Z,4.56
2018-04-30T09:24:02.936Z,4.74
2018-04-30T09:26:31.222Z,3.02
2018-04-30T09:28:59.507Z,3.34
2018-04-30T09:31:28.927Z,6.64
2018-04-30T09:33:58.151Z,3.34
2018-04-30T09:36:26.857Z,4.72
2018-04-30T09:38:55.116Z,3.32
2018-04-30T09:41:23.374Z,2.68
2018-04-30T09:43:51.644Z,2.62
2018-04-30T09:46:19.148Z,2.52
2018-04-30T09:48:47.413Z,5.38
2018-04-30T09:51:15.697Z,2.88
2018-04-30T09:53:43.939Z,2.58
2018-04-30T09:56:12.234Z,2.56
2018-04-30T09:58:40.495Z,2.50
2018-04-30T10:01:09.719Z,2.60
2018-04-30T10:03:37.204Z,3.34
2018-04-30T10:06:05.499Z,2.20
2018-04-30T10:08:33.760Z,2.90
2018-04-30T10:11:02.055Z,2.50
2018-04-30T10:13:30.326Z,3.50
2018-04-30T10:15:58.609Z,2.56
2018-04-30T10:18:27.353Z,5.26
2018-04-30T10:20:57.653Z,2.84
2018-04-30T10:23:26.005Z,2.64
2018-04-30T10:25:54.208Z,2.86
2018-04-30T10:28:22.474Z,2.50
2018-04-30T10:30:51.117Z,2.80
2018-04-30T10:33:19.401Z,2.78
2018-04-30T10:35:47.673Z,2.78
2018-04-30T10:38:16.950Z,2.52
2018-04-30T10:40:45.206Z,1.92
2018-04-30T10:43:14.449Z,2.48
2018-04-30T10:45:42.712Z,2.26
2018-04-30T10:48:10.253Z,2.36
2018-04-30T10:50:39.328Z,3.78
2018-04-30T10:53:08.462Z,2.54
2018-04-30T10:55:36.736Z,2.84
2018-04-30T10:58:05.008Z,3.84
2018-04-30T11:00:33.304Z,3.28
2018-04-30T11:03:02.529Z,2.56
2018-04-30T11:05:30.826Z,4.24
2018-04-30T11:07:59.085Z,3.74
2018-04-30T11:10:29.306Z,2.52
2018-04-30T11:12:57.221Z,2.46
2018-04-30T11:15:25.517Z,2.60
2018-04-30T11:17:53.822Z,2.54
2018-04-30T11:20:22.099Z,3.86
2018-04-30T11:22:50.373Z,2.22
2018-04-30T11:25:18.631Z,3.06
2018-04-30T11:27:50.372Z,2.80
2018-04-30T11:30:18.620Z,2.54
2018-04-30T11:32:47.905Z,4.72
2018-04-30T11:35:16.181Z,2.60
2018-04-30T11:37:43.686Z,2.72
2018-04-30T11:40:11.953Z,2.66
2018-04-30T11:42:40.236Z,3.70
2018-04-30T11:45:09.530Z,4.72
2018-04-30T11:47:38.515Z,3.36
2018-04-30T11:50:10.330Z,2.62
2018-04-30T11:52:39.316Z,5.46
2018-04-30T11:55:09.625Z,3.42
2018-04-30T11:57:38.314Z,4.32
2018-04-30T12:00:11.190Z,2.30
2018-04-30T12:02:40.358Z,3.54
2018-04-30T12:05:08.891Z,2.64
2018-04-30T12:07:37.207Z,2.56
2018-04-30T12:10:05.482Z,3.50
2018-04-30T12:12:33.781Z,2.26
2018-04-30T12:15:02.056Z,2.24
2018-04-30T12:17:30.347Z,2.54
2018-04-30T12:20:01.861Z,2.74
2018-04-30T12:22:30.152Z,2.26
2018-04-30T12:24:59.636Z,4.52
2018-04-30T12:27:27.942Z,6.76
2018-04-30T12:29:56.229Z,5.90
2018-04-30T12:32:24.511Z,2.36
2018-04-30T12:34:53.745Z,3.50
2018-04-30T12:37:22.054Z,3.10
2018-04-30T12:39:50.362Z,5.18
2018-04-30T12:42:24.474Z,3.30
2018-04-30T12:44:52.747Z,2.50
2018-04-30T12:47:21.058Z,2.30
2018-04-30T12:49:49.385Z,5.58
2018-04-30T12:52:20.681Z,3.28
2018-04-30T12:54:48.987Z,5.80
2018-04-30T12:57:17.282Z,3.10
2018-04-30T12:59:45.553Z,2.38
2018-04-30T13:02:13.855Z,2.26
2018-04-30T13:04:42.139Z,8.30
2018-04-30T13:07:10.504Z,2.10
2018-04-30T13:09:39.394Z,4.32
2018-04-30T13:12:09.391Z,2.18
2018-04-30T13:14:38.939Z,2.52
2018-04-30T13:17:09.109Z,2.90
2018-04-30T13:19:37.368Z,3.48
2018-04-30T13:22:17.620Z,4.02
2018-04-30T13:24:45.889Z,4.44
2018-04-30T13:27:14.155Z,2.44
2018-04-30T13:30:03.508Z,3.88
2018-04-30T13:32:31.762Z,2.50
2018-04-30T13:35:00.023Z,3.70
2018-04-30T13:37:29.618Z,2.12
2018-04-30T13:39:58.270Z,2.32
2018-04-30T13:42:26.551Z,2.00
2018-04-30T13:44:54.884Z,2.12
2018-04-30T13:47:23.149Z,2.18
2018-04-30T13:49:51.411Z,3.50
2018-04-30T13:52:19.678Z,2.10
2018-04-30T13:54:47.941Z,3.60
2018-04-30T13:57:16.218Z,2.84
2018-04-30T13:59:44.502Z,1.50
2018-04-30T14:02:12.763Z,2.64
2018-04-30T14:04:41.048Z,1.94
2018-04-30T14:07:10.564Z,1.56
2018-04-30T14:09:38.880Z,1.80
2018-04-30T14:12:07.157Z,2.12
2018-04-30T14:14:35.450Z,4.50
2018-04-30T14:17:03.700Z,4.80
2018-04-30T14:19:38.124Z,1.80
2018-04-30T14:22:06.436Z,1.86
2018-04-30T14:24:36.663Z,1.86
2018-04-30T14:27:04.939Z,2.58
2018-04-30T14:29:33.263Z,5.48
2018-04-30T14:32:01.504Z,1.62
2018-04-30T14:34:29.774Z,1.98
2018-04-30T14:36:58.064Z,2.20
2018-04-30T14:39:27.301Z,1.86
2018-04-30T14:41:55.592Z,2.32
2018-04-30T14:44:23.846Z,2.58
2018-04-30T14:46:52.137Z,2.96
2018-04-30T14:49:22.367Z,2.16
2018-04-30T14:51:50.636Z,3.06
2018-04-30T14:54:22.198Z,1.84
2018-04-30T14:56:50.480Z,3.28
2018-04-30T14:59:22.104Z,3.14
2018-04-30T15:01:50.398Z,1.82
2018-04-30T15:04:22.198Z,2.32
2018-04-30T15:06:50.480Z,4.62
2018-04-30T15:09:18.744Z,3.12
2018-04-30T15:11:47.033Z,1.90
2018-04-30T15:14:15.304Z,1.92
2018-04-30T15:16:43.574Z,1.70
2018-04-30T15:19:11.849Z,6.98
2018-04-30T15:21:40.543Z,2.30
2018-04-30T15:24:10.807Z,3.48
2018-04-30T15:26:38.821Z,2.16
2018-04-30T15:29:07.083Z,2.02
2018-04-30T15:31:35.348Z,1.78
2018-04-30T15:34:03.619Z,2.12
2018-04-30T15:36:31.949Z,1.80
2018-04-30T15:39:00.881Z,1.90
2018-04-30T15:41:31.386Z,4.04
2018-04-30T15:44:00.767Z,1.94
2018-04-30T15:46:29.955Z,1.94
2018-04-30T15:48:58.996Z,3.24
2018-04-30T15:51:27.247Z,4.06
2018-04-30T15:53:55.547Z,6.02
2018-04-30T15:56:23.792Z,2.42
2018-04-30T15:58:52.079Z,1.74
2018-04-30T16:01:20.364Z,2.00
2018-04-30T16:03:48.651Z,1.80
2018-04-30T16:06:16.892Z,4.00
2018-04-30T16:08:45.169Z,1.84
2018-04-30T16:11:13.429Z,2.06
2018-04-30T16:13:41.735Z,3.78
2018-04-30T16:16:10.013Z,1.60
2018-04-30T16:18:38.935Z,1.46
2018-04-30T16:21:07.217Z,3.30
2018-04-30T16:23:37.410Z,2.74
2018-04-30T16:26:05.686Z,2.85
2018-04-30T16:28:33.957Z,1.40
2018-04-30T16:31:02.245Z,1.60
2018-04-30T16:33:33.693Z,1.60
2018-04-30T16:36:01.978Z,2.04
2018-04-30T16:38:31.208Z,1.60
2018-04-30T16:41:00.411Z,3.26
2018-04-30T16:43:39.683Z,1.74
2018-04-30T16:46:07.975Z,2.06
2018-04-30T16:48:36.243Z,1.70
2018-04-30T16:51:04.552Z,2.62
2018-04-30T16:53:34.780Z,3.30
2018-04-30T16:56:03.057Z,1.60
2018-04-30T16:58:31.350Z,3.52
2018-04-30T17:01:00.008Z,2.28
2018-04-30T17:03:31.528Z,1.98
2018-04-30T17:06:00.111Z,3.26
2018-04-30T17:08:28.390Z,2.48
2018-04-30T17:10:56.677Z,2.02
2018-04-30T17:13:25.895Z,1.74
2018-04-30T17:15:54.173Z,2.10
2018-04-30T17:18:22.480Z,3.10
2018-04-30T17:20:50.759Z,1.80
2018-04-30T17:23:19.968Z,1.72
2018-04-30T17:25:48.256Z,3.44
2018-04-30T17:28:16.567Z,15.50
2018-04-30T17:30:44.828Z,2.16
2018-04-30T17:33:13.081Z,2.60
2018-04-30T17:35:42.373Z,3.22
2018-04-30T17:38:10.662Z,2.78
2018-04-30T17:40:44.201Z,3.32
2018-04-30T17:43:12.468Z,2.30
2018-04-30T17:45:40.755Z,4.30
2018-04-30T17:48:09.925Z,2.14
2018-04-30T17:50:39.119Z,1.88
2018-04-30T17:53:07.371Z,1.68
2018-04-30T17:55:34.891Z,1.88
2018-04-30T17:58:02.384Z,1.74
2018-04-30T18:00:31.592Z,1.82
2018-04-30T18:03:00.701Z,1.82
2018-04-30T18:05:29.579Z,1.98
2018-04-30T18:07:57.841Z,1.96
2018-04-30T18:10:26.139Z,1.50
2018-04-30T18:12:55.342Z,2.26
2018-04-30T18:15:23.601Z,1.80
2018-04-30T18:17:51.885Z,1.72
2018-04-30T18:20:20.191Z,3.54
2018-04-30T18:22:48.464Z,1.74
2018-04-30T18:25:16.720Z,1.82
2018-04-30T18:27:45.015Z,2.28
2018-04-30T18:30:13.302Z,2.94
2018-04-30T18:32:41.592Z,2.82
2018-04-30T18:35:10.655Z,1.60
2018-04-30T18:37:39.338Z,4.06
2018-04-30T18:40:09.157Z,2.68
2018-04-30T18:42:38.330Z,4.76
2018-04-30T18:45:09.404Z,2.96
2018-04-30T18:47:38.487Z,3.22
2018-04-30T18:50:09.199Z,1.50
2018-04-30T18:52:37.452Z,1.70
2018-04-30T18:55:06.912Z,1.64
2018-04-30T18:57:35.199Z,1.58
2018-04-30T19:00:04.401Z,1.82
2018-04-30T19:02:32.765Z,1.92
2018-04-30T19:05:12.026Z,2.10
2018-04-30T19:07:40.316Z,1.60
2018-04-30T19:10:09.230Z,1.66
2018-04-30T19:12:37.514Z,9.44
2018-04-30T19:15:06.943Z,4.28
2018-04-30T19:17:35.240Z,1.64
2018-04-30T19:20:16.247Z,1.58
2018-04-30T19:22:44.566Z,2.38
2018-04-30T19:25:12.835Z,2.76
2018-04-30T19:27:41.134Z,1.62
2018-04-30T19:30:09.943Z,2.02
2018-04-30T19:32:39.072Z,1.80
2018-04-30T19:35:07.371Z,2.42
2018-04-30T19:37:35.624Z,4.68
2018-04-30T19:40:04.887Z,3.92
2018-04-30T19:42:33.123Z,1.72
2018-04-30T19:45:02.067Z,2.84
2018-04-30T19:47:31.276Z,3.72
2018-04-30T19:50:00.104Z,2.86
2018-04-30T19:52:28.437Z,1.96
2018-04-30T19:54:56.654Z,2.62
2018-04-30T19:57:24.926Z,1.92
2018-04-30T19:59:54.225Z,1.98
2018-04-30T20:02:22.549Z,3.62
2018-04-30T20:04:51.889Z,2.04
2018-04-30T20:07:20.163Z,6.34
2018-04-30T20:09:48.487Z,1.90
2018-04-30T20:12:28.133Z,3.50
2018-04-30T20:14:59.821Z,1.70
2018-04-30T20:17:28.749Z,1.80
2018-04-30T20:19:58.420Z,2.10
2018-04-30T20:22:27.412Z,4.54
2018-04-30T20:24:57.736Z,2.08
2018-04-30T20:27:27.020Z,2.14
2018-04-30T20:30:10.452Z,2.12
2018-04-30T20:32:38.043Z,2.24
2018-04-30T20:35:06.270Z,1.82
2018-04-30T20:37:34.678Z,2.58
2018-04-30T20:40:02.961Z,2.84
2018-04-30T20:42:32.579Z,2.74
2018-04-30T20:45:00.894Z,3.94
2018-04-30T20:47:29.159Z,2.90
2018-04-30T20:52:57.839Z,2.74
2018-04-30T20:55:25.639Z,3.38
2018-04-30T21:00:46.793Z,3.20
2018-04-30T21:03:15.105Z,3.12
2018-04-30T21:06:08.963Z,3.58
2018-04-30T21:11:32.213Z,3.60
2018-04-30T21:14:14.341Z,4.86
2018-04-30T21:16:42.668Z,5.22
2018-04-30T21:22:04.479Z,5.30
2018-04-30T21:24:32.818Z,4.86
2018-04-30T21:27:00.315Z,4.68
2018-04-30T21:35:14.873Z,4.52
2018-04-30T21:37:43.208Z,4.60
2018-04-30T21:40:11.518Z,4.94
2018-04-30T21:48:50.596Z,6.18
2018-04-30T21:57:11.695Z,5.46
2018-04-30T22:02:33.808Z,6.14
2018-04-30T22:05:02.766Z,4.86
2018-04-30T22:07:31.059Z,4.56
2018-04-30T22:18:40.113Z,5.12
2018-04-30T22:21:08.767Z,3.82
2018-04-30T22:23:38.015Z,4.16
2018-04-30T22:26:06.313Z,4.10
2018-04-30T22:28:35.042Z,7.52
2018-04-30T22:33:55.758Z,3.96
2018-04-30T22:42:09.941Z,3.62
2018-04-30T22:44:42.450Z,6.18
2018-04-30T22:47:10.742Z,3.86
2018-04-30T22:49:40.477Z,4.02
2018-04-30T22:52:08.738Z,4.70
2018-04-30T22:54:42.994Z,4.80
2018-04-30T23:00:05.444Z,4.72
2018-04-30T23:02:33.702Z,4.48
2018-04-30T23:08:10.240Z,5.58
2018-04-30T23:13:40.339Z,5.28
2018-04-30T23:19:03.928Z,4.84
2018-04-30T23:21:33.346Z,7.62
2018-04-30T23:24:01.240Z,5.30
2018-04-30T23:26:40.041Z,7.54
2018-04-30T23:34:55.696Z,6.82
2018-04-30T23:37:23.991Z,7.48
2018-04-30T23:39:53.256Z,5.56
2018-04-30T23:42:40.890Z,6.42
2018-04-30T23:48:03.845Z,5.40
2018-04-30T23:50:40.679Z,5.14
2018-04-30T23:53:10.150Z,5.30
2018-04-30T23:55:39.239Z,5.44
